Terminal Aerodrome Forecast
Issued by NWS Wilmington, OH

Home | Current Version | Previous Version | Text Only | Print | Product List | Glossary On
Versions: 1 2 3 4 5 6 7 8 9 10 11 12 13 14 15 16 17 18 19
000
FTUS41 KILN 010525
TAFILN
TAF
KILN 010525Z 0106/0206 09003KT P6SM FEW070 SCT200
     FM011500 16006KT P6SM SCT120
     FM012100 19006KT P6SM VCSH BKN070
     FM012300 20005KT P6SM VCTS BKN060CB
     FM020200 22004KT P6SM SCT060 BKN250=

USA.gov is the U.S. government's official web portal to all federal, state and local government web resources and services.